Time;durP1;ratioP1;P1;durP2;ratioP2;P2;SDS_P1;SDS_P2;PMS_P1;PMS_P2;Temp;Humidity;BMP_temperature;BMP_pressure;BME280_temperature;BME280_humidity;BME280_pressure;Samples;Min_cycle;Max_cycle;Signal;HPM_P1;HPM_P2
2023/06/30 00:00:12;;;;;;;15.30;5.97;;;;;;;17.01;100.00;99951.22;5013625;28;20475;-76
2023/06/30 00:02:41;;;;;;;10.50;6.30;;;;;;;16.99;100.00;99951.75;5012466;28;20029;-76
2023/06/30 00:05:13;;;;;;;9.85;6.13;;;;;;;16.91;100.00;99936.38;5013826;28;20022;-77
2023/06/30 00:07:40;;;;;;;13.07;5.82;;;;;;;16.91;100.00;99945.03;5013480;28;20046;-76
2023/06/30 00:10:08;;;;;;;7.63;6.28;;;;;;;16.88;100.00;99937.50;5013521;28;20507;-77
2023/06/30 00:12:34;;;;;;;11.05;6.10;;;;;;;16.85;100.00;99941.44;5012165;28;20022;-77
2023/06/30 00:15:08;;;;;;;9.02;6.63;;;;;;;16.83;100.00;99943.34;5012303;28;20030;-79
2023/06/30 00:17:33;;;;;;;7.00;5.93;;;;;;;16.78;100.00;99947.88;5012397;28;20549;-76
2023/06/30 00:20:05;;;;;;;8.45;6.25;;;;;;;16.76;100.00;99938.19;5017340;28;20060;-76
2023/06/30 00:22:36;;;;;;;9.65;6.65;;;;;;;16.76;100.00;99947.63;5016048;28;20028;-76
2023/06/30 00:25:03;;;;;;;8.88;6.82;;;;;;;16.76;100.00;99936.06;5016365;28;20029;-75
2023/06/30 00:27:30;;;;;;;14.68;7.03;;;;;;;16.74;100.00;99937.97;5015531;28;20061;-74
2023/06/30 00:29:55;;;;;;;10.07;7.50;;;;;;;16.83;100.00;99943.34;5017254;28;20060;-76
2023/06/30 00:32:23;;;;;;;12.35;6.97;;;;;;;16.88;100.00;99946.16;5017060;28;20480;-75
2023/06/30 00:34:49;;;;;;;9.73;6.40;;;;;;;16.95;100.00;99941.84;5015936;28;20083;-74
2023/06/30 00:37:15;;;;;;;11.75;7.13;;;;;;;17.01;100.00;99944.66;5017194;28;20050;-76
2023/06/30 00:39:42;;;;;;;14.65;6.65;;;;;;;17.09;100.00;99939.81;5017197;28;20033;-77
2023/06/30 00:42:08;;;;;;;12.18;6.45;;;;;;;17.16;100.00;99939.19;5017163;28;20025;-76
2023/06/30 00:44:35;;;;;;;6.85;5.70;;;;;;;17.24;100.00;99946.66;5017406;28;20169;-78
2023/06/30 00:47:02;;;;;;;10.55;5.57;;;;;;;17.29;100.00;99924.81;5015654;28;20545;-77
2023/06/30 00:49:31;;;;;;;8.45;6.25;;;;;;;17.35;100.00;99934.16;5017123;28;20033;-77
2023/06/30 00:51:59;;;;;;;11.35;5.97;;;;;;;17.37;100.00;99928.63;5015333;28;20479;-77
2023/06/30 00:54:25;;;;;;;9.68;5.53;;;;;;;17.35;100.00;99917.59;5015685;28;20033;-76
2023/06/30 00:56:54;;;;;;;7.65;5.82;;;;;;;17.38;100.00;99927.28;5015692;28;20030;-77
2023/06/30 00:59:21;;;;;;;10.52;5.65;;;;;;;17.40;100.00;99916.72;5016559;28;20068;-77
2023/06/30 01:02:05;;;;;;;11.43;5.90;;;;;;;17.42;100.00;99911.19;5014151;28;20120;-76
2023/06/30 01:04:54;;;;;;;9.43;5.53;;;;;;;17.47;100.00;99914.56;5011409;28;20483;-75
2023/06/30 01:07:43;;;;;;;11.60;6.32;;;;;;;17.45;100.00;99897.78;5015382;28;20046;-77
2023/06/30 01:10:29;;;;;;;8.40;5.82;;;;;;;17.43;100.00;99900.41;5014049;28;20540;-77
2023/06/30 01:13:02;;;;;;;8.40;6.18;;;;;;;17.40;100.00;99892.84;5012597;28;20049;-77
2023/06/30 01:15:40;;;;;;;10.25;5.53;;;;;;;17.36;100.00;99896.06;5014067;28;20049;-78
2023/06/30 01:18:05;;;;;;;8.65;5.38;;;;;;;17.36;100.00;99893.16;5015590;28;20100;-76
2023/06/30 01:20:35;;;;;;;7.60;5.22;;;;;;;17.34;100.00;99901.59;5013864;28;20109;-74
2023/06/30 01:23:27;;;;;;;8.40;5.40;;;;;;;17.31;100.00;99899.81;5014848;28;20025;-76
2023/06/30 01:25:53;;;;;;;8.23;5.55;;;;;;;17.25;100.00;99889.69;5013624;28;20018;-75
2023/06/30 01:28:19;;;;;;;8.20;5.43;;;;;;;17.26;100.00;99899.91;5013156;28;20072;-76
2023/06/30 01:30:44;;;;;;;8.88;5.22;;;;;;;17.21;100.00;99898.66;5015280;28;20025;-77
2023/06/30 01:33:11;;;;;;;11.80;5.82;;;;;;;17.20;100.00;99905.75;5014003;28;20044;-76
2023/06/30 01:35:40;;;;;;;9.10;6.15;;;;;;;17.18;100.00;99899.00;5015769;28;20100;-76
2023/06/30 01:38:07;;;;;;;10.55;6.07;;;;;;;17.15;100.00;99891.41;5014628;28;20374;-78
2023/06/30 01:40:33;;;;;;;9.52;5.43;;;;;;;17.16;100.00;99890.09;5016011;28;20030;-76
2023/06/30 01:42:59;;;;;;;6.82;5.70;;;;;;;17.13;100.00;99883.31;5030997;28;20065;-76
2023/06/30 01:45:28;;;;;;;6.70;5.30;;;;;;;17.15;100.00;99885.63;5014813;28;20037;-76
2023/06/30 01:47:54;;;;;;;8.68;6.20;;;;;;;17.14;100.00;99884.09;5014395;28;20391;-78
2023/06/30 01:50:21;;;;;;;11.52;5.75;;;;;;;17.11;100.00;99882.28;5015583;28;20080;-76
2023/06/30 01:52:50;;;;;;;8.43;6.07;;;;;;;17.14;100.00;99881.22;5015240;28;20064;-77
2023/06/30 01:55:17;;;;;;;6.63;5.93;;;;;;;17.12;100.00;99883.84;5015816;28;20025;-76
2023/06/30 01:57:42;;;;;;;9.70;6.00;;;;;;;17.12;100.00;99878.09;5030666;28;20026;-77
2023/06/30 02:00:09;;;;;;;7.68;6.35;;;;;;;17.08;100.00;99878.41;5015474;28;20034;-76
2023/06/30 02:02:35;;;;;;;9.18;5.90;;;;;;;17.03;100.00;99870.63;5014402;28;20118;-76
2023/06/30 02:05:01;;;;;;;7.70;5.63;;;;;;;16.97;100.00;99870.69;5014194;28;20069;-77
2023/06/30 02:07:27;;;;;;;9.23;5.63;;;;;;;16.98;100.00;99880.13;5014071;28;20024;-75
2023/06/30 02:09:53;;;;;;;8.82;5.90;;;;;;;16.96;100.00;99886.44;5015601;28;20037;-75
2023/06/30 02:12:18;;;;;;;11.45;6.32;;;;;;;16.97;100.00;99885.13;5015187;28;20030;-77
2023/06/30 02:14:44;;;;;;;7.75;5.82;;;;;;;17.00;100.00;99883.25;5015470;28;20120;-77
2023/06/30 02:17:10;;;;;;;9.00;5.35;;;;;;;17.01;100.00;99881.13;5015003;28;20395;-75
2023/06/30 02:19:36;;;;;;;9.55;5.30;;;;;;;17.02;100.00;99874.81;5013913;28;20467;-76
2023/06/30 02:22:02;;;;;;;6.75;5.50;;;;;;;16.98;100.00;99874.38;5015065;28;20081;-77
2023/06/30 02:24:28;;;;;;;9.70;6.50;;;;;;;16.98;100.00;99871.47;5030267;28;20506;-77
2023/06/30 02:26:55;;;;;;;11.68;5.88;;;;;;;16.96;100.00;99877.00;5015105;28;20022;-76
2023/06/30 02:29:20;;;;;;;13.15;5.97;;;;;;;16.96;100.00;99874.13;5014673;28;20089;-76
2023/06/30 02:31:47;;;;;;;9.30;5.90;;;;;;;16.94;100.00;99868.13;5014888;28;20057;-77
2023/06/30 02:34:13;;;;;;;12.40;5.38;;;;;;;16.93;100.00;99873.13;5014723;28;20030;-77
2023/06/30 02:36:38;;;;;;;10.73;5.88;;;;;;;16.93;100.00;99867.34;5014700;28;20026;-76
2023/06/30 02:39:04;;;;;;;7.65;5.47;;;;;;;16.96;100.00;99872.03;5013619;28;20080;-76
2023/06/30 02:41:38;;;;;;;9.25;5.40;;;;;;;16.98;100.00;99868.59;5014280;28;20075;-76
2023/06/30 02:44:04;;;;;;;13.88;6.25;;;;;;;17.01;100.00;99860.94;5014650;28;20029;-75
2023/06/30 02:46:31;;;;;;;11.70;6.18;;;;;;;17.02;100.00;99865.38;5013514;28;20037;-75
2023/06/30 02:48:56;;;;;;;9.95;5.22;;;;;;;16.99;100.00;99858.63;5014748;28;20026;-77
2023/06/30 02:51:22;;;;;;;7.10;4.78;;;;;;;16.99;100.00;99856.47;4996956;28;20022;-78
2023/06/30 02:53:48;;;;;;;10.70;5.60;;;;;;;16.96;100.00;99857.59;5013358;28;20383;-76
2023/06/30 02:56:15;;;;;;;7.53;5.50;;;;;;;16.79;100.00;99836.09;4996971;28;20065;-77
2023/06/30 02:58:41;;;;;;;11.13;6.28;;;;;;;16.91;100.00;99855.56;5013311;28;20034;-76
2023/06/30 03:01:08;;;;;;;8.40;5.70;;;;;;;16.86;100.00;99859.31;5014579;28;20026;-76
2023/06/30 03:03:35;;;;;;;11.07;5.93;;;;;;;16.77;100.00;99862.59;5014608;28;20113;-79
2023/06/30 03:06:02;;;;;;;11.80;5.43;;;;;;;16.77;100.00;99859.72;5014850;28;20096;-76
2023/06/30 03:08:30;;;;;;;12.20;6.05;;;;;;;16.79;100.00;99867.84;4996759;28;20414;-76
2023/06/30 03:10:56;;;;;;;10.65;5.85;;;;;;;16.81;100.00;99853.63;5014534;28;20029;-77
2023/06/30 03:13:30;;;;;;;12.07;6.55;;;;;;;16.80;100.00;99855.72;5013024;28;20108;-76
2023/06/30 03:15:57;;;;;;;13.75;6.60;;;;;;;16.69;100.00;99863.78;5014555;28;20021;-77
2023/06/30 03:18:23;;;;;;;8.75;5.47;;;;;;;16.67;100.00;99869.31;5013588;28;20048;-77
2023/06/30 03:20:51;;;;;;;16.40;6.25;;;;;;;16.66;100.00;99864.88;5014371;28;20105;-77
2023/06/30 03:23:19;;;;;;;7.40;5.65;;;;;;;16.66;100.00;99862.75;5014243;28;20030;-76
2023/06/30 03:25:45;;;;;;;15.40;6.13;;;;;;;16.59;100.00;99851.88;5012961;28;20088;-75
2023/06/30 03:28:12;;;;;;;10.02;6.10;;;;;;;16.69;100.00;99855.13;5013421;28;20041;-77
2023/06/30 03:30:37;;;;;;;13.82;6.05;;;;;;;16.64;100.00;99853.09;5013854;28;20026;-75
2023/06/30 03:33:04;;;;;;;11.73;5.95;;;;;;;16.67;100.00;99852.78;4996328;28;20026;-76
2023/06/30 03:35:31;;;;;;;10.32;6.88;;;;;;;16.61;100.00;99848.41;5014115;28;20033;-75
2023/06/30 03:37:56;;;;;;;10.85;6.50;;;;;;;16.60;100.00;99855.53;5014049;28;20372;-75
2023/06/30 03:40:22;;;;;;;9.35;5.70;;;;;;;16.45;100.00;99836.53;5014010;28;20478;-76
2023/06/30 03:42:48;;;;;;;11.38;6.65;;;;;;;16.55;100.00;99851.38;5028854;28;20018;-77
2023/06/30 03:45:14;;;;;;;13.25;6.85;;;;;;;16.58;100.00;99847.41;5014276;28;20033;-77
2023/06/30 03:47:42;;;;;;;13.85;6.78;;;;;;;16.69;100.00;99849.38;5014037;28;20029;-77
2023/06/30 03:50:09;;;;;;;9.98;5.80;;;;;;;16.78;100.00;99843.97;5012621;28;20030;-76
2023/06/30 03:52:34;;;;;;;10.95;5.90;;;;;;;16.81;100.00;99844.97;5013592;28;20044;-77
2023/06/30 03:55:01;;;;;;;10.55;6.07;;;;;;;16.76;100.00;99842.94;5012630;28;20034;-75
2023/06/30 03:57:29;;;;;;;10.40;6.28;;;;;;;16.81;100.00;99842.88;5012280;28;20145;-76
2023/06/30 03:59:54;;;;;;;13.38;6.72;;;;;;;16.80;100.00;99841.31;5012790;28;20026;-75
2023/06/30 04:02:20;;;;;;;10.23;6.43;;;;;;;16.77;100.00;99842.41;5012704;28;20351;-76
2023/06/30 04:04:46;;;;;;;12.63;6.32;;;;;;;16.82;100.00;99841.53;5013841;28;20032;-77
2023/06/30 04:07:12;;;;;;;10.05;6.70;;;;;;;16.89;100.00;99840.13;5012640;28;20118;-76
2023/06/30 04:09:38;;;;;;;13.07;6.07;;;;;;;17.01;100.00;99844.41;5012606;28;20021;-77
2023/06/30 04:12:04;;;;;;;10.65;7.25;;;;;;;17.04;100.00;99845.41;5021182;28;20088;-78
2023/06/30 04:14:32;;;;;;;10.68;6.25;;;;;;;17.08;100.00;99848.75;5036678;28;20022;-79
2023/06/30 04:16:59;;;;;;;9.70;5.80;;;;;;;17.04;100.00;99845.41;5036157;28;20061;-78
2023/06/30 04:19:24;;;;;;;11.88;5.80;;;;;;;16.96;100.00;99843.16;5034762;28;20014;-79
2023/06/30 04:21:51;;;;;;;15.10;6.20;;;;;;;16.94;100.00;99847.94;5033615;28;20081;-79
2023/06/30 04:24:20;;;;;;;9.27;5.72;;;;;;;16.97;100.00;99841.84;5034375;28;20032;-79
2023/06/30 04:26:45;;;;;;;13.27;6.57;;;;;;;16.92;100.00;99839.03;5030449;28;20900;-80
2023/06/30 04:29:16;;;;;;;12.35;5.88;;;;;;;16.81;100.00;99845.75;5028119;28;20050;-79
2023/06/30 04:31:41;;;;;;;16.55;6.50;;;;;;;16.89;100.00;99840.91;5037441;28;20074;-79
2023/06/30 04:34:07;;;;;;;14.63;6.65;;;;;;;16.97;100.00;99843.94;5019642;28;20126;-80
2023/06/30 04:36:34;;;;;;;18.15;6.50;;;;;;;17.06;100.00;99846.41;5019716;28;20097;-80
2023/06/30 04:38:59;;;;;;;19.67;7.25;;;;;;;17.14;100.00;99846.56;5019672;28;20503;-78
2023/06/30 04:41:33;;;;;;;13.88;5.70;;;;;;;17.06;100.00;99845.63;5018437;28;20110;-79
2023/06/30 04:43:59;;;;;;;18.35;6.60;;;;;;;16.96;100.00;99843.16;5013845;28;20113;-79
2023/06/30 04:46:27;;;;;;;10.32;6.50;;;;;;;17.04;100.00;99842.53;5013310;28;20079;-82
2023/06/30 04:48:55;;;;;;;8.45;5.93;;;;;;;17.07;100.00;99842.19;5011768;28;20029;-78
2023/06/30 04:51:22;;;;;;;8.25;6.00;;;;;;;17.17;100.00;99833.91;5012838;28;20030;-80
2023/06/30 04:53:47;;;;;;;10.85;5.97;;;;;;;17.22;100.00;99841.69;5016452;28;20025;-82
2023/06/30 04:56:13;;;;;;;21.52;6.57;;;;;;;17.22;100.00;99836.69;5018555;28;20041;-83
2023/06/30 04:58:41;;;;;;;16.52;6.57;;;;;;;17.19;100.00;99834.13;5015704;28;20038;-80
2023/06/30 05:01:06;;;;;;;11.10;6.90;;;;;;;17.22;100.00;99841.69;5030070;28;20021;-78
2023/06/30 05:03:33;;;;;;;13.43;7.25;;;;;;;17.24;100.00;99842.69;5014497;28;20105;-77
2023/06/30 05:06:01;;;;;;;18.25;6.32;;;;;;;17.25;100.00;99841.38;5016810;28;20037;-79
2023/06/30 05:08:27;;;;;;;20.08;6.57;;;;;;;17.35;100.00;99844.59;5016778;28;20065;-76
2023/06/30 05:10:56;;;;;;;14.38;6.05;;;;;;;17.41;100.00;99840.28;5016650;28;20068;-78
2023/06/30 05:13:22;;;;;;;19.15;6.40;;;;;;;17.45;100.00;99839.22;5015457;28;20080;-79
2023/06/30 05:15:48;;;;;;;12.70;6.78;;;;;;;17.52;100.00;99836.47;5035615;28;20037;-81
2023/06/30 05:18:15;;;;;;;15.02;5.82;;;;;;;17.62;100.00;99842.59;5032093;28;20041;-83
2023/06/30 05:20:41;;;;;;;12.40;5.95;;;;;;;17.69;100.00;99836.13;5018616;28;20032;-77
2023/06/30 05:23:07;;;;;;;14.13;6.05;;;;;;;17.76;100.00;99838.38;5036172;28;20501;-78
2023/06/30 05:25:32;;;;;;;12.07;6.88;;;;;;;17.82;100.00;99844.84;5036068;28;20034;-79
2023/06/30 05:27:57;;;;;;;15.32;5.97;;;;;;;17.90;100.00;99837.03;5035780;28;20047;-76
2023/06/30 05:30:23;;;;;;;13.32;6.13;;;;;;;17.96;100.00;99843.50;5035356;28;20029;-76
2023/06/30 05:32:49;;;;;;;13.10;6.32;;;;;;;18.05;100.00;99837.25;5017755;28;20109;-75
2023/06/30 05:35:15;;;;;;;16.65;5.75;;;;;;;18.05;100.00;99830.69;5035708;28;20359;-78
2023/06/30 05:37:40;;;;;;;15.20;7.32;;;;;;;18.19;100.00;99838.03;5016204;28;20088;-79
2023/06/30 05:40:06;;;;;;;14.63;7.75;;;;;;;18.26;100.00;99837.38;5033275;28;20412;-76
2023/06/30 05:42:31;;;;;;;13.38;6.63;;;;;;;18.32;100.00;99834.38;5033743;28;20029;-77
2023/06/30 05:44:57;;;;;;;8.48;5.55;;;;;;;18.41;100.00;99840.47;5032618;28;20033;-76
2023/06/30 05:47:22;;;;;;;10.48;5.63;;;;;;;18.45;100.00;99837.25;5032451;28;20144;-75
2023/06/30 05:49:48;;;;;;;13.70;6.43;;;;;;;18.41;100.00;99834.69;5014425;28;20462;-77
2023/06/30 05:52:13;;;;;;;13.68;6.13;;;;;;;18.41;100.00;99839.69;4999068;28;20025;-76
2023/06/30 05:54:38;;;;;;;12.52;5.25;;;;;;;18.42;100.00;99842.03;5033069;28;20467;-75
2023/06/30 05:57:04;;;;;;;12.00;5.53;;;;;;;18.48;100.00;99839.78;5033047;28;20117;-75
2023/06/30 05:59:30;;;;;;;8.23;4.90;;;;;;;18.64;100.00;99844.44;5015277;28;20033;-77
2023/06/30 06:01:56;;;;;;;10.07;5.03;;;;;;;18.83;100.00;99843.47;5033021;28;20030;-76
2023/06/30 06:04:21;;;;;;;7.95;5.10;;;;;;;18.92;100.00;99829.28;5032822;28;20035;-76
2023/06/30 06:06:47;;;;;;;11.13;4.80;;;;;;;19.08;100.00;99830.22;5015040;28;20124;-77
2023/06/30 06:09:12;;;;;;;12.80;4.90;;;;;;;19.39;100.00;99835.00;5000310;28;20181;-77
2023/06/30 06:11:38;;;;;;;13.10;5.32;;;;;;;19.68;100.00;99824.22;5034880;28;20025;-77
2023/06/30 06:14:04;;;;;;;9.38;4.90;;;;;;;19.99;100.00;99819.44;5034707;28;20072;-77
2023/06/30 06:16:29;;;;;;;11.77;5.00;;;;;;;20.25;100.00;99813.34;5033698;28;20042;-76
2023/06/30 06:18:54;;;;;;;6.05;3.83;;;;;;;20.48;100.00;99824.31;5016867;28;20021;-77
2023/06/30 06:21:21;;;;;;;8.48;5.25;;;;;;;20.73;100.00;99823.28;5034962;28;20025;-76
2023/06/30 06:23:46;;;;;;;8.10;4.13;;;;;;;20.83;100.00;99831.44;5017127;28;20043;-77
2023/06/30 06:26:11;;;;;;;9.00;4.47;;;;;;;21.01;100.00;99821.59;5016819;28;20108;-76
2023/06/30 06:28:37;;;;;;;10.48;4.57;;;;;;;21.30;100.00;99828.78;5034489;28;20127;-77
2023/06/30 06:31:02;;;;;;;10.60;4.80;;;;;;;21.38;100.00;99826.69;5034536;28;20025;-76
2023/06/30 06:33:28;;;;;;;9.05;4.13;;;;;;;21.42;100.00;99827.06;5034456;28;20489;-77
2023/06/30 06:35:53;;;;;;;8.38;4.13;;;;;;;21.57;100.00;99830.00;5034579;28;20466;-76
2023/06/30 06:38:19;;;;;;;11.73;4.30;;;;;;;21.97;100.00;99823.56;5034462;28;20394;-76
2023/06/30 06:40:45;;;;;;;17.45;4.60;;;;;;;22.47;100.00;99816.63;5034664;28;20028;-76
2023/06/30 06:43:10;;;;;;;5.75;3.88;;;;;;;22.94;100.00;99815.06;5034239;28;20036;-78
2023/06/30 06:45:36;;;;;;;11.90;4.20;;;;;;;23.49;100.00;99819.91;5016627;28;20113;-77
2023/06/30 06:48:18;;;;;;;11.18;3.95;;;;;;;23.93;100.00;99817.19;5034055;28;20032;-74
2023/06/30 06:50:54;;;;;;;11.75;3.65;;;;;;;24.20;100.00;99818.06;5033862;28;20483;-77
2023/06/30 06:53:33;;;;;;;8.50;3.03;;;;;;;24.71;100.00;99814.34;5016445;28;20175;-79
2023/06/30 06:55:59;;;;;;;8.02;3.05;;;;;;;25.31;100.00;99809.00;5016222;28;20475;-76
2023/06/30 06:58:28;;;;;;;19.60;3.58;;;;;;;26.11;100.00;99808.81;5016990;28;20029;-76
2023/06/30 07:00:54;;;;;;;10.98;3.17;;;;;;;26.96;100.00;99809.38;5016970;28;20033;-75
2023/06/30 07:03:20;;;;;;;8.02;3.03;;;;;;;27.63;96.17;99817.19;5033831;28;20091;-75
2023/06/30 07:05:47;;;;;;;8.48;3.47;;;;;;;28.16;95.90;99812.06;5032154;28;20049;-76
2023/06/30 07:08:22;;;;;;;11.13;3.30;;;;;;;28.81;89.31;99806.28;5016585;28;20033;-76
2023/06/30 07:10:50;;;;;;;12.68;3.22;;;;;;;29.39;83.79;99814.47;5016267;28;20116;-75
2023/06/30 07:13:17;;;;;;;8.68;3.35;;;;;;;29.82;81.92;99803.22;5000033;28;20566;-75
2023/06/30 07:15:45;;;;;;;9.88;2.95;;;;;;;30.21;67.34;99811.50;5016379;28;20055;-75
2023/06/30 07:18:11;;;;;;;13.35;3.30;;;;;;;30.51;75.24;99802.28;5033888;28;20026;-73
2023/06/30 07:20:37;;;;;;;11.50;3.38;;;;;;;30.86;72.43;99804.34;5033609;28;20445;-73
2023/06/30 07:23:02;;;;;;;12.85;2.35;;;;;;;31.33;60.92;99802.63;5015935;28;20454;-73
2023/06/30 07:25:31;;;;;;;7.38;2.70;;;;;;;31.68;62.39;99808.28;5033407;28;20032;-74
2023/06/30 07:27:57;;;;;;;10.95;3.00;;;;;;;31.90;55.41;99810.91;5000590;28;20114;-76
2023/06/30 07:30:26;;;;;;;5.45;2.90;;;;;;;31.88;62.62;99810.81;5034030;28;20071;-76
2023/06/30 07:32:54;;;;;;;6.53;2.88;;;;;;;31.74;52.88;99808.63;5000124;28;20060;-77
2023/06/30 07:35:20;;;;;;;8.57;2.78;;;;;;;31.50;56.28;99809.47;4999776;28;20037;-77
2023/06/30 07:37:56;;;;;;;21.15;3.53;;;;;;;31.45;58.45;99798.84;5016098;28;20100;-75
2023/06/30 07:40:23;;;;;;;5.45;3.03;;;;;;;31.36;54.98;99800.56;5033599;28;20033;-76
2023/06/30 07:42:48;;;;;;;5.82;2.40;;;;;;;30.99;56.82;99797.72;5033466;28;20029;-75
2023/06/30 07:45:22;;;;;;;5.07;2.15;;;;;;;31.13;57.88;99794.78;5030210;28;20041;-75
2023/06/30 07:47:49;;;;;;;6.10;2.45;;;;;;;31.39;58.63;99787.44;5033346;28;20530;-74
2023/06/30 07:50:15;;;;;;;4.55;2.38;;;;;;;31.68;57.34;99789.78;5033284;28;20029;-75
2023/06/30 07:52:47;;;;;;;9.65;2.50;;;;;;;31.53;49.51;99799.28;5015809;28;20029;-75
2023/06/30 07:55:28;;;;;;;9.45;3.05;;;;;;;31.06;56.38;99793.66;5016285;28;20029;-74
2023/06/30 07:57:54;;;;;;;;;;;;;;;30.76;52.91;99798.59;5033851;28;20033;-74
2023/06/30 08:00:28;;;;;;;9.32;2.75;;;;;;;30.54;56.40;99801.00;5033245;28;20321;-74
2023/06/30 08:02:54;;;;;;;4.50;2.85;;;;;;;30.29;57.43;99791.34;5033182;28;20109;-76
2023/06/30 08:05:22;;;;;;;10.63;2.35;;;;;;;30.10;60.84;99795.34;4999214;28;20124;-76
2023/06/30 08:07:48;;;;;;;6.90;2.50;;;;;;;29.89;62.93;99784.50;5033231;28;20025;-76
2023/06/30 08:10:14;;;;;;;5.70;2.28;;;;;;;29.64;61.19;99784.41;5032661;28;20042;-75
2023/06/30 08:12:54;;;;;;;7.18;2.92;;;;;;;29.55;63.95;99783.09;5033148;28;20033;-76
2023/06/30 08:15:21;;;;;;;5.68;2.63;;;;;;;29.29;65.64;99787.31;5033056;28;20076;-75
2023/06/30 08:17:46;;;;;;;10.50;2.28;;;;;;;28.99;69.15;99782.38;5032814;28;20463;-76
2023/06/30 08:20:13;;;;;;;7.47;2.20;;;;;;;28.72;69.56;99776.94;5030961;28;20068;-75
2023/06/30 08:22:53;;;;;;;9.40;2.10;;;;;;;28.77;72.84;99772.88;5033082;28;20026;-75
2023/06/30 08:25:24;;;;;;;7.13;2.55;;;;;;;28.96;73.57;99772.66;5033264;28;20053;-76
2023/06/30 08:27:51;;;;;;;7.35;2.65;;;;;;;29.14;69.44;99776.03;5015238;28;20137;-76
2023/06/30 08:30:17;;;;;;;6.03;2.55;;;;;;;29.17;68.94;99780.66;5032883;28;20065;-76
2023/06/30 08:32:43;;;;;;;8.75;2.60;;;;;;;29.12;69.65;99779.63;5015373;28;20079;-74
2023/06/30 08:35:08;;;;;;;8.57;2.40;;;;;;;29.11;70.07;99780.25;5033010;28;20021;-79
2023/06/30 08:37:36;;;;;;;3.63;2.17;;;;;;;29.17;70.49;99769.66;5015556;28;20036;-80
2023/06/30 08:40:03;;;;;;;18.20;3.17;;;;;;;29.24;70.77;99774.50;5035653;28;20075;-82
2023/06/30 08:42:30;;;;;;;19.80;3.47;;;;;;;29.38;67.23;99776.84;5037098;28;20021;-80
2023/06/30 08:44:57;;;;;;;13.52;2.72;;;;;;;29.16;69.36;99767.34;5036134;28;20131;-81
2023/06/30 08:47:31;;;;;;;8.38;2.83;;;;;;;29.04;71.23;99778.31;4986634;28;20106;-83
2023/06/30 08:50:06;;;;;;;11.73;3.88;;;;;;;28.89;74.34;99777.38;5019998;28;20477;-77
2023/06/30 08:52:32;;;;;;;7.15;2.97;;;;;;;28.68;73.89;99768.63;5036650;28;20044;-78
2023/06/30 08:55:01;;;;;;;3.47;1.90;;;;;;;28.54;74.30;99758.84;5002637;28;20375;-77
2023/06/30 08:57:26;;;;;;;10.80;2.58;;;;;;;28.51;77.12;99768.94;5035009;28;20053;-78
2023/06/30 08:59:52;;;;;;;6.85;3.08;;;;;;;28.43;78.11;99771.34;5002867;28;20029;-78
2023/06/30 09:02:18;;;;;;;20.25;3.63;;;;;;;28.34;78.53;99767.06;5018599;28;20502;-79
2023/06/30 09:04:43;;;;;;;15.75;4.35;;;;;;;28.26;78.89;99769.47;5018560;28;20029;-78
2023/06/30 09:07:15;;;;;;;5.15;2.50;;;;;;;28.03;79.29;99776.00;5036552;28;20412;-86
2023/06/30 09:09:42;;;;;;;9.27;2.97;;;;;;;27.82;83.53;99770.06;5036744;28;20067;-83
2023/06/30 09:12:11;;;;;;;8.05;2.75;;;;;;;27.67;83.46;99767.53;5036359;28;20508;-83
2023/06/30 09:14:52;;;;;;;8.70;2.60;;;;;;;27.47;82.41;99766.13;5036688;28;20025;-83
2023/06/30 09:17:18;;;;;;;6.78;2.50;;;;;;;27.36;85.32;99773.44;5019051;28;20104;-83
2023/06/30 09:19:52;;;;;;;7.25;2.80;;;;;;;27.28;87.43;99764.03;5036654;28;20049;-82
2023/06/30 09:22:20;;;;;;;11.30;2.95;;;;;;;27.17;88.12;99767.63;5033569;28;20112;-84
2023/06/30 09:24:48;;;;;;;13.05;3.22;;;;;;;27.04;88.29;99760.13;5018723;28;20036;-81
2023/06/30 09:27:16;;;;;;;9.07;2.47;;;;;;;26.83;89.70;99759.25;5001984;28;20501;-81
2023/06/30 09:29:42;;;;;;;8.60;3.45;;;;;;;26.64;91.45;99757.09;5036156;28;20028;-79
2023/06/30 09:32:08;;;;;;;5.13;2.72;;;;;;;26.56;92.69;99753.59;5018218;28;20033;-79
2023/06/30 09:34:35;;;;;;;5.60;3.03;;;;;;;26.50;95.17;99747.25;5018070;28;20021;-77
2023/06/30 09:37:01;;;;;;;5.38;3.05;;;;;;;26.42;96.69;99755.47;5018148;28;20033;-79
2023/06/30 09:39:29;;;;;;;8.75;3.05;;;;;;;26.21;97.17;99748.06;5035939;28;20030;-80
2023/06/30 09:41:54;;;;;;;15.57;3.45;;;;;;;26.08;98.95;99756.50;5034912;28;20038;-79
2023/06/30 09:44:20;;;;;;;6.72;3.30;;;;;;;26.01;99.98;99755.28;5034992;28;20033;-77
2023/06/30 09:46:46;;;;;;;11.38;3.08;;;;;;;25.99;100.00;99752.19;5017222;28;20553;-77
2023/06/30 09:49:32;;;;;;;7.82;3.78;;;;;;;25.91;100.00;99749.44;5035655;28;20026;-77
2023/06/30 09:52:01;;;;;;;9.27;2.85;;;;;;;25.96;100.00;99750.50;5035865;28;20025;-78
2023/06/30 09:54:29;;;;;;;7.13;3.08;;;;;;;26.09;100.00;99752.19;5018101;28;20026;-79
2023/06/30 09:57:05;;;;;;;14.98;3.03;;;;;;;26.18;97.13;99752.22;5017610;28;20160;-79
2023/06/30 09:59:32;;;;;;;9.55;2.85;;;;;;;26.18;95.54;99752.22;5017874;28;20124;-78
2023/06/30 10:02:00;;;;;;;9.05;3.08;;;;;;;26.12;94.97;99745.91;5017605;28;20045;-77
2023/06/30 10:04:29;;;;;;;17.25;3.22;;;;;;;26.04;94.40;99751.13;5017550;28;20029;-78
2023/06/30 10:06:55;;;;;;;5.10;2.70;;;;;;;26.11;95.88;99744.38;5035303;28;20093;-78
2023/06/30 10:09:22;;;;;;;7.78;2.63;;;;;;;26.00;94.38;99747.88;5035464;28;20112;-78
2023/06/30 10:11:54;;;;;;;5.03;2.50;;;;;;;25.98;96.03;99733.06;5001174;28;20040;-79
2023/06/30 10:14:21;;;;;;;4.07;2.30;;;;;;;25.97;97.07;99743.28;5017515;28;20037;-79
2023/06/30 10:16:48;;;;;;;8.40;2.70;;;;;;;25.93;96.04;99740.00;5017317;28;20368;-78
2023/06/30 10:19:15;;;;;;;3.33;2.50;;;;;;;25.93;95.24;99745.88;5017699;28;20040;-82
2023/06/30 10:21:42;;;;;;;2.60;2.40;;;;;;;25.89;93.95;99728.75;5001502;28;20132;-85
2023/06/30 10:24:09;;;;;;;7.60;2.95;;;;;;;26.12;94.54;99745.16;5034472;28;20029;-84
2023/06/30 10:26:44;;;;;;;4.57;2.97;;;;;;;26.18;94.01;99742.66;5017994;28;20047;-83
2023/06/30 10:29:12;;;;;;;7.05;2.50;;;;;;;26.19;94.18;99742.03;5034768;28;20107;-86
2023/06/30 10:31:46;;;;;;;5.53;2.67;;;;;;;26.23;94.50;99747.44;5035850;28;20431;-84
2023/06/30 10:34:13;;;;;;;10.10;2.72;;;;;;;26.28;93.86;99744.19;5035015;28;20064;-84
2023/06/30 10:36:40;;;;;;;7.25;2.67;;;;;;;26.40;91.58;99744.34;5034891;28;20033;-84
2023/06/30 10:39:06;;;;;;;4.07;2.13;;;;;;;26.45;88.58;99745.41;5017882;28;20045;-85
2023/06/30 10:41:49;;;;;;;3.30;2.30;;;;;;;26.44;86.11;99740.94;5017701;28;20037;-87
2023/06/30 10:44:35;;;;;;;11.90;2.72;;;;;;;26.40;88.10;99746.50;5001964;28;20086;-85
2023/06/30 10:47:02;;;;;;;5.90;2.47;;;;;;;26.29;87.46;99744.97;5018755;28;20044;-82
2023/06/30 10:49:29;;;;;;;7.22;2.58;;;;;;;26.09;89.59;99732.47;5015245;28;20463;-82
2023/06/30 10:51:56;;;;;;;8.45;2.88;;;;;;;25.91;91.99;99725.22;5017228;28;20104;-87
2023/06/30 10:54:27;;;;;;;9.25;2.80;;;;;;;25.92;93.76;99726.78;5000488;28;20483;-86
2023/06/30 10:57:10;;;;;;;5.38;2.80;;;;;;;25.96;95.71;99727.06;5016779;28;20029;-85
2023/06/30 10:59:41;;;;;;;9.82;3.17;;;;;;;25.92;96.96;99718.72;5014773;28;20033;-86
2023/06/30 11:02:22;;;;;;;7.32;3.13;;;;;;;25.96;97.76;99726.31;5034731;28;20057;-86
2023/06/30 11:04:50;;;;;;;6.05;3.88;;;;;;;26.04;97.92;99724.75;5000505;28;20033;-84
2023/06/30 11:07:27;;;;;;;6.88;3.35;;;;;;;26.31;98.67;99727.56;5017455;28;20026;-85
2023/06/30 11:09:57;;;;;;;6.50;3.08;;;;;;;26.62;96.95;99725.47;5017264;28;20025;-85
2023/06/30 11:12:24;;;;;;;5.75;2.75;;;;;;;26.90;94.76;99723.88;5017231;28;20041;-84
2023/06/30 11:14:57;;;;;;;9.50;2.80;;;;;;;27.14;93.14;99722.69;5034707;28;20489;-85
2023/06/30 11:17:25;;;;;;;8.70;2.90;;;;;;;27.41;93.09;99718.72;5034837;28;20057;-86
2023/06/30 11:20:12;;;;;;;8.48;2.60;;;;;;;27.75;84.40;99723.31;5017489;28;20048;-84
2023/06/30 11:22:58;;;;;;;5.40;2.58;;;;;;;28.00;84.77;99718.47;5015820;28;20026;-85
2023/06/30 11:25:35;;;;;;;6.90;2.85;;;;;;;28.25;84.49;99712.06;5034421;28;20040;-85
2023/06/30 11:28:08;;;;;;;6.50;3.10;;;;;;;28.43;82.38;99709.59;5033220;28;20545;-84